createdAt,value
2023-05-17T00:00:03.040Z,94991.09
2023-05-17T00:02:30.723Z,94986.69
2023-05-17T00:04:58.523Z,94997.75
2023-05-17T00:07:27.579Z,94987.84
2023-05-17T00:09:55.538Z,94992.78
2023-05-17T00:12:23.454Z,94993.25
2023-05-17T00:14:51.111Z,94991.59
2023-05-17T00:17:18.750Z,94997.16
2023-05-17T00:19:46.380Z,94996.47
2023-05-17T00:22:14.093Z,94998.19
2023-05-17T00:24:43.061Z,95005.72
2023-05-17T00:27:10.833Z,94998.41
2023-05-17T00:29:38.496Z,95006.63
2023-05-17T00:32:06.958Z,95012.53
2023-05-17T00:34:34.821Z,95004.84
2023-05-17T00:37:02.765Z,94998.34
2023-05-17T00:39:30.419Z,95003.41
2023-05-17T00:41:59.459Z,95001.84
2023-05-17T00:44:27.092Z,95006.41
2023-05-17T00:46:54.804Z,94998.06
2023-05-17T00:49:22.659Z,94999.00
2023-05-17T00:51:50.346Z,94999.00
2023-05-17T00:54:17.953Z,95005.69
2023-05-17T00:56:45.976Z,95006.94
2023-05-17T00:59:15.163Z,95009.13
2023-05-17T01:01:45.252Z,95010.78
2023-05-17T01:04:13.048Z,95012.28
2023-05-17T01:06:41.136Z,95011.59
2023-05-17T01:09:09.045Z,95014.16
2023-05-17T01:11:43.447Z,95014.59
2023-05-17T01:14:24.068Z,95015.91
2023-05-17T01:16:57.193Z,95018.38
2023-05-17T01:19:42.541Z,95015.06
2023-05-17T01:22:17.379Z,95018.16
2023-05-17T01:24:52.115Z,95025.88
2023-05-17T01:27:22.015Z,95013.78
2023-05-17T01:29:50.836Z,95020.03
2023-05-17T01:32:19.083Z,95023.81
2023-05-17T01:34:46.805Z,95025.72
2023-05-17T01:37:14.476Z,95027.41
2023-05-17T01:39:42.501Z,95030.09
2023-05-17T01:42:15.177Z,95029.72
2023-05-17T01:44:54.440Z,95026.34
2023-05-17T01:47:27.462Z,95035.91
2023-05-17T01:49:55.363Z,95028.75
2023-05-17T01:52:28.922Z,95034.63
2023-05-17T01:55:03.322Z,95037.19
2023-05-17T01:57:34.443Z,95033.84
2023-05-17T02:00:06.087Z,95041.09
2023-05-17T02:02:33.771Z,95035.44
2023-05-17T02:05:01.444Z,95044.78
2023-05-17T02:07:29.221Z,95048.09
2023-05-17T02:09:56.860Z,95050.41
2023-05-17T02:12:25.377Z,95045.47
2023-05-17T02:14:53.056Z,95046.78
2023-05-17T02:17:22.136Z,95048.03
2023-05-17T02:19:49.861Z,95049.66
2023-05-17T02:22:17.566Z,95053.03
2023-05-17T02:24:46.703Z,95054.03
2023-05-17T02:27:14.374Z,95051.91
2023-05-17T02:29:42.745Z,95057.25
2023-05-17T02:32:11.035Z,95056.41
2023-05-17T02:34:40.058Z,95059.72
2023-05-17T02:37:07.680Z,95059.28
2023-05-17T02:39:35.406Z,95062.66
2023-05-17T02:42:03.072Z,95059.28
2023-05-17T02:44:30.762Z,95056.69
2023-05-17T02:46:58.419Z,95063.47
2023-05-17T02:49:26.162Z,95067.41
2023-05-17T02:51:55.209Z,95074.47
2023-05-17T02:54:22.925Z,95067.91
2023-05-17T02:57:42.887Z,95066.84
2023-05-17T03:00:11.093Z,95072.88
2023-05-17T03:02:38.809Z,95074.91
2023-05-17T03:05:08.336Z,95074.91
2023-05-17T03:07:36.234Z,95082.88
2023-05-17T03:10:03.908Z,95084.97
2023-05-17T03:12:31.560Z,95090.97
2023-05-17T03:15:00.629Z,95092.66
2023-05-17T03:17:28.439Z,95093.47
2023-05-17T03:19:56.643Z,95097.63
2023-05-17T03:22:24.388Z,95097.41
2023-05-17T03:24:52.053Z,95106.78
2023-05-17T03:27:19.756Z,95109.34
2023-05-17T03:29:47.437Z,95104.19
2023-05-17T03:32:16.504Z,95113.75
2023-05-17T03:34:44.197Z,95117.28
2023-05-17T03:37:11.915Z,95115.03
2023-05-17T03:39:39.558Z,95122.75
2023-05-17T03:42:07.447Z,95122.81
2023-05-17T03:44:35.104Z,95129.44
2023-05-17T03:47:02.808Z,95132.75
2023-05-17T03:49:31.855Z,95129.88
2023-05-17T03:51:59.557Z,95139.91
2023-05-17T03:54:27.289Z,95142.22
2023-05-17T03:56:54.985Z,95139.47
2023-05-17T03:59:22.700Z,95143.19
2023-05-17T04:01:50.562Z,95142.78
2023-05-17T04:04:18.233Z,95154.50
2023-05-17T04:06:47.210Z,95157.00
2023-05-17T04:09:15.562Z,95162.38
2023-05-17T04:11:43.567Z,95161.72
2023-05-17T04:14:11.213Z,95164.91
2023-05-17T04:16:38.853Z,95166.97
2023-05-17T04:19:06.721Z,95168.47
2023-05-17T04:21:34.452Z,95169.56
2023-05-17T04:24:03.425Z,95171.25
2023-05-17T04:26:32.261Z,95167.69
2023-05-17T04:28:59.933Z,95172.22
2023-05-17T04:31:27.715Z,95180.41
2023-05-17T04:33:55.399Z,95177.91
2023-05-17T04:36:23.095Z,95178.75
2023-05-17T04:38:50.828Z,95185.59
2023-05-17T04:41:19.853Z,95193.94
2023-05-17T04:43:47.615Z,95192.44
2023-05-17T04:46:15.273Z,95193.59
2023-05-17T04:48:42.997Z,95199.41
2023-05-17T04:51:10.822Z,95206.50
2023-05-17T04:53:38.434Z,95201.69
2023-05-17T04:56:06.920Z,95207.28
2023-05-17T04:58:36.010Z,95211.13
2023-05-17T05:01:03.816Z,95205.25
2023-05-17T05:03:31.525Z,95212.69
2023-05-17T05:05:59.224Z,95206.66
2023-05-17T05:08:26.898Z,95211.06
2023-05-17T05:10:54.557Z,95209.84
2023-05-17T05:13:22.776Z,95223.63
2023-05-17T05:15:51.914Z,95225.72
2023-05-17T05:18:19.679Z,95232.13
2023-05-17T05:20:47.582Z,95233.56
2023-05-17T05:23:15.255Z,95225.19
2023-05-17T05:25:44.508Z,95228.09
2023-05-17T05:28:12.269Z,95231.50
2023-05-17T05:30:40.410Z,95233.94
2023-05-17T05:33:09.534Z,95224.78
2023-05-17T05:35:37.324Z,95233.88
2023-05-17T05:38:04.935Z,95233.44
2023-05-17T05:40:32.866Z,95235.88
2023-05-17T05:43:00.602Z,95244.19
2023-05-17T05:45:28.243Z,95230.84
2023-05-17T05:47:55.951Z,95235.72
2023-05-17T05:50:25.071Z,95235.63
2023-05-17T05:52:56.311Z,95235.97
2023-05-17T05:55:31.476Z,95233.34
2023-05-17T05:57:59.149Z,95244.78
2023-05-17T06:00:27.235Z,95240.78
2023-05-17T06:02:57.298Z,95244.44
2023-05-17T06:05:26.703Z,95249.19
2023-05-17T06:07:54.388Z,95243.44
2023-05-17T06:10:22.454Z,95247.22
2023-05-17T06:12:50.331Z,95251.69
2023-05-17T06:15:18.217Z,95252.09
2023-05-17T06:17:46.090Z,95253.28
2023-05-17T06:20:15.082Z,95247.31
2023-05-17T06:22:44.097Z,95256.34
2023-05-17T06:25:12.135Z,95257.06
2023-05-17T06:27:39.913Z,95255.69
2023-05-17T06:30:08.823Z,95257.63
2023-05-17T06:32:36.497Z,95253.38
2023-05-17T06:35:04.738Z,95253.81
2023-05-17T06:37:33.073Z,95262.00
2023-05-17T06:40:10.537Z,95261.84
2023-05-17T06:42:43.066Z,95264.84
2023-05-17T06:45:12.032Z,95266.75
2023-05-17T06:47:41.834Z,95269.91
2023-05-17T06:50:10.532Z,95276.59
2023-05-17T06:52:38.260Z,95272.84
2023-05-17T06:55:09.290Z,95275.78
2023-05-17T06:57:37.580Z,95283.31
2023-05-17T07:00:10.506Z,95286.63
2023-05-17T07:02:38.318Z,95289.94
2023-05-17T07:05:07.243Z,95287.47
2023-05-17T07:07:35.093Z,95280.66
2023-05-17T07:10:02.763Z,95292.22
2023-05-17T07:12:31.785Z,95285.06
2023-05-17T07:14:59.452Z,95295.28
2023-05-17T07:17:27.151Z,95289.06
2023-05-17T07:19:55.035Z,95300.63
2023-05-17T07:22:22.890Z,95297.84
2023-05-17T07:24:51.041Z,95294.69
2023-05-17T07:27:18.756Z,95295.41
2023-05-17T07:29:47.856Z,95301.47
2023-05-17T07:32:16.059Z,95304.09
2023-05-17T07:34:43.765Z,95305.78
2023-05-17T07:37:11.488Z,95304.56
2023-05-17T07:39:39.226Z,95303.84
2023-05-17T07:42:07.809Z,95308.13
2023-05-17T07:44:35.654Z,95310.72
2023-05-17T07:47:04.857Z,95313.13
2023-05-17T07:49:32.648Z,95315.31
2023-05-17T07:52:00.329Z,95306.50
2023-05-17T07:54:28.225Z,95309.59
2023-05-17T07:56:56.157Z,95305.22
2023-05-17T07:59:23.859Z,95306.28
2023-05-17T08:01:51.790Z,95303.94
2023-05-17T08:04:20.954Z,95298.34
2023-05-17T08:06:50.057Z,95298.03
2023-05-17T08:09:18.015Z,95294.84
2023-05-17T08:11:47.041Z,95294.34
2023-05-17T08:14:15.688Z,95299.13
2023-05-17T08:16:43.461Z,95300.94
2023-05-17T08:19:14.003Z,95303.66
2023-05-17T08:21:43.764Z,95300.69
2023-05-17T08:24:11.669Z,95314.09
2023-05-17T08:26:39.359Z,95307.72
2023-05-17T08:29:07.190Z,95305.16
2023-05-17T08:31:34.868Z,95310.06
2023-05-17T08:34:03.295Z,95302.41
2023-05-17T08:36:31.036Z,95310.50
2023-05-17T08:39:00.049Z,95319.69
2023-05-17T08:41:27.718Z,95315.72
2023-05-17T08:43:56.899Z,95317.59
2023-05-17T08:46:25.198Z,95318.00
2023-05-17T08:48:59.986Z,95319.31
2023-05-17T08:51:28.565Z,95324.81
2023-05-17T08:53:56.304Z,95324.41
2023-05-17T08:56:27.079Z,95321.94
2023-05-17T08:58:58.127Z,95330.13
2023-05-17T09:01:28.383Z,95317.38
2023-05-17T09:03:57.136Z,95319.94
2023-05-17T09:06:25.475Z,95318.84
2023-05-17T09:08:54.534Z,95332.09
2023-05-17T09:11:30.823Z,95334.75
2023-05-17T09:14:02.043Z,95333.50
2023-05-17T09:16:30.297Z,95337.72
2023-05-17T09:18:59.639Z,95331.34
2023-05-17T09:21:28.268Z,95338.47
2023-05-17T09:24:06.374Z,95338.97
2023-05-17T09:26:43.813Z,95333.53
2023-05-17T09:29:12.141Z,95338.94
2023-05-17T09:31:40.138Z,95335.50
2023-05-17T09:34:08.745Z,95341.34
2023-05-17T09:36:38.503Z,95344.09
2023-05-17T09:39:10.766Z,95340.53
2023-05-17T09:41:43.476Z,95344.69
2023-05-17T09:44:12.362Z,95344.06
2023-05-17T09:46:42.919Z,95342.97
2023-05-17T09:49:10.616Z,95356.59
2023-05-17T09:51:40.951Z,95349.25
2023-05-17T09:54:10.087Z,95349.19
2023-05-17T09:56:38.075Z,95344.84
2023-05-17T09:59:13.662Z,95347.81
2023-05-17T10:01:42.233Z,95346.28
2023-05-17T10:04:11.083Z,95337.16
2023-05-17T10:09:14.598Z,95347.63
2023-05-17T10:11:44.558Z,95342.72
2023-05-17T10:14:18.494Z,95348.66
2023-05-17T10:16:46.404Z,95344.88
2023-05-17T10:19:14.796Z,95333.69
2023-05-17T10:21:43.232Z,95332.56
2023-05-17T10:24:12.540Z,95328.97
2023-05-17T10:26:40.294Z,95332.47
2023-05-17T10:29:08.611Z,95331.22
2023-05-17T10:31:37.687Z,95329.34
2023-05-17T10:34:06.427Z,95325.44
2023-05-17T10:36:34.855Z,95325.63
2023-05-17T10:39:03.006Z,95333.75
2023-05-17T10:41:33.835Z,95326.56
2023-05-17T10:44:03.199Z,95332.16
2023-05-17T10:46:31.613Z,95334.63
2023-05-17T10:49:02.166Z,95324.38
2023-05-17T10:51:32.534Z,95322.13
2023-05-17T10:54:11.579Z,95326.59
2023-05-17T10:56:43.169Z,95313.38
2023-05-17T10:59:18.546Z,95318.09
2023-05-17T11:01:58.980Z,95322.44
2023-05-17T11:04:31.763Z,95313.78
2023-05-17T11:07:32.996Z,95324.56
2023-05-17T11:10:07.106Z,95308.09
2023-05-17T11:12:38.539Z,95316.03
2023-05-17T11:15:09.102Z,95310.72
2023-05-17T11:17:38.625Z,95301.34
2023-05-17T11:20:13.503Z,95300.22
2023-05-17T11:22:42.994Z,95303.94
2023-05-17T11:25:13.278Z,95309.06
2023-05-17T11:27:45.887Z,95299.50
2023-05-17T11:30:22.979Z,95302.75
2023-05-17T11:32:51.977Z,95296.97
2023-05-17T11:35:24.918Z,95298.50
2023-05-17T11:37:54.487Z,95297.69
2023-05-17T11:40:29.223Z,95298.66
2023-05-17T11:43:16.691Z,95309.16
2023-05-17T11:45:46.019Z,95303.38
2023-05-17T11:48:13.843Z,95300.53
2023-05-17T11:50:43.568Z,95303.28
2023-05-17T11:53:11.608Z,95296.56
2023-05-17T11:55:40.133Z,95295.31
2023-05-17T11:58:09.172Z,95302.19
2023-05-17T12:00:38.676Z,95313.31
2023-05-17T12:03:18.968Z,95309.19
2023-05-17T12:05:49.950Z,95303.84
2023-05-17T12:08:19.046Z,95305.09
2023-05-17T12:10:50.324Z,95306.34
2023-05-17T12:13:18.191Z,95314.94
2023-05-17T12:15:49.112Z,95308.25
2023-05-17T12:18:17.074Z,95309.03
2023-05-17T12:20:59.315Z,95298.13
2023-05-17T12:23:28.916Z,95300.38
2023-05-17T12:26:07.216Z,95308.91
2023-05-17T12:28:35.611Z,95310.81
2023-05-17T12:31:04.084Z,95308.75
2023-05-17T12:33:33.232Z,95313.47
2023-05-17T12:36:03.537Z,95311.88
2023-05-17T12:38:33.311Z,95306.16
2023-05-17T12:41:04.625Z,95304.50
2023-05-17T12:43:34.292Z,95303.81
2023-05-17T12:46:07.682Z,95307.31
2023-05-17T12:48:36.574Z,95292.44
2023-05-17T12:51:11.746Z,95303.50
2023-05-17T12:53:40.291Z,95317.00
2023-05-17T12:56:08.662Z,95300.19
2023-05-17T12:58:37.256Z,95299.38
2023-05-17T13:01:07.015Z,95301.50
2023-05-17T13:03:35.024Z,95300.50
2023-05-17T13:06:04.569Z,95301.44
2023-05-17T13:08:33.893Z,95299.78
2023-05-17T13:11:08.777Z,95307.72
2023-05-17T13:13:36.736Z,95298.56
2023-05-17T13:16:04.552Z,95295.78
2023-05-17T13:18:35.620Z,95304.28
2023-05-17T13:21:03.824Z,95297.72
2023-05-17T13:23:32.863Z,95295.19
2023-05-17T13:26:00.510Z,95300.72
2023-05-17T13:28:28.161Z,95301.75
2023-05-17T13:30:56.000Z,95301.53
2023-05-17T13:33:23.840Z,95308.44
2023-05-17T13:35:51.607Z,95304.28
2023-05-17T13:38:19.345Z,95311.31
2023-05-17T13:40:48.376Z,95299.34
2023-05-17T13:43:16.095Z,95299.06
2023-05-17T13:45:43.784Z,95296.94
2023-05-17T13:48:12.062Z,95288.09
2023-05-17T13:50:40.918Z,95288.38
2023-05-17T13:53:08.559Z,95294.53
2023-05-17T13:55:36.273Z,95299.16
2023-05-17T13:58:05.599Z,95297.81
2023-05-17T14:00:33.302Z,95295.00
2023-05-17T14:03:01.072Z,95293.00
2023-05-17T14:05:28.894Z,95298.78
2023-05-17T14:07:56.657Z,95287.97
2023-05-17T14:10:24.289Z,95301.13
2023-05-17T14:12:51.977Z,95299.66
2023-05-17T14:15:21.099Z,95297.31
2023-05-17T14:17:48.940Z,95300.28
2023-05-17T14:20:16.918Z,95291.59
2023-05-17T14:22:44.592Z,95291.41
2023-05-17T14:25:12.523Z,95298.72
2023-05-17T14:27:40.193Z,95288.41
2023-05-17T14:30:10.194Z,95288.16
2023-05-17T14:32:40.692Z,95287.97
2023-05-17T14:35:09.200Z,95288.13
2023-05-17T14:37:36.903Z,95281.94
2023-05-17T14:40:06.808Z,95286.19
2023-05-17T14:42:34.917Z,95286.44
2023-05-17T14:45:02.767Z,95292.53
2023-05-17T14:47:30.556Z,95283.72
2023-05-17T14:49:59.851Z,95289.28
2023-05-17T14:52:27.515Z,95296.75
2023-05-17T14:54:55.213Z,95284.28
2023-05-17T14:57:23.439Z,95288.28
2023-05-17T14:59:51.085Z,95288.63
2023-05-17T15:02:18.918Z,95293.31
2023-05-17T15:04:47.540Z,95289.53
2023-05-17T15:07:16.852Z,95290.56
2023-05-17T15:09:44.675Z,95288.19
2023-05-17T15:12:14.065Z,95293.59
2023-05-17T15:14:42.002Z,95298.41
2023-05-17T15:17:09.647Z,95292.84
2023-05-17T15:19:37.416Z,95297.34
2023-05-17T15:22:05.640Z,95296.47
2023-05-17T15:24:34.858Z,95295.38
2023-05-17T15:27:02.560Z,95296.31
2023-05-17T15:29:31.251Z,95306.63
2023-05-17T15:31:59.904Z,95298.47
2023-05-17T15:34:29.157Z,95300.09
2023-05-17T15:36:58.147Z,95305.31
2023-05-17T15:39:25.814Z,95302.47
2023-05-17T15:41:54.933Z,95308.06
2023-05-17T15:44:23.895Z,95308.81
2023-05-17T15:46:51.794Z,95303.72
2023-05-17T15:49:19.654Z,95308.66
2023-05-17T15:51:47.674Z,95310.16
2023-05-17T15:54:15.876Z,95298.13
2023-05-17T15:56:43.582Z,95307.09
2023-05-17T15:59:12.604Z,95310.59
2023-05-17T16:01:41.883Z,95313.69
2023-05-17T16:04:09.594Z,95320.72
2023-05-17T16:06:37.423Z,95314.34
2023-05-17T16:09:05.332Z,95313.50
2023-05-17T16:11:33.072Z,95314.41
2023-05-17T16:14:00.770Z,95314.28
2023-05-17T16:16:29.758Z,95315.41
2023-05-17T16:18:58.572Z,95321.44
2023-05-17T16:21:26.655Z,95311.22
2023-05-17T16:23:54.318Z,95315.34
2023-05-17T16:26:22.155Z,95311.88
2023-05-17T16:28:50.668Z,95312.81
2023-05-17T16:31:18.389Z,95311.06
2023-05-17T16:33:47.565Z,95313.28
2023-05-17T16:36:15.294Z,95320.84
2023-05-17T16:38:43.015Z,95317.69
2023-05-17T16:41:10.908Z,95324.97
2023-05-17T16:43:38.537Z,95328.69
2023-05-17T16:46:06.239Z,95333.25
2023-05-17T16:48:33.976Z,95335.06
2023-05-17T16:51:03.109Z,95339.69
2023-05-17T16:53:30.820Z,95328.53
2023-05-17T16:55:58.533Z,95336.41
2023-05-17T16:58:27.046Z,95337.72
2023-05-17T17:00:54.680Z,95335.06
2023-05-17T17:03:22.585Z,95335.41
2023-05-17T17:05:50.323Z,95334.75
2023-05-17T17:08:19.365Z,95331.78
2023-05-17T17:10:47.060Z,95341.00
2023-05-17T17:13:15.067Z,95342.28
2023-05-17T17:15:42.726Z,95339.94
2023-05-17T17:18:10.452Z,95344.00
2023-05-17T17:20:38.181Z,95343.94
2023-05-17T17:23:06.486Z,95343.59
2023-05-17T17:25:35.502Z,95348.81
2023-05-17T17:28:03.150Z,95346.78
2023-05-17T17:30:31.018Z,95347.75
2023-05-17T17:32:59.050Z,95350.28
2023-05-17T17:35:26.820Z,95350.28
2023-05-17T17:37:54.465Z,95353.44
2023-05-17T17:40:22.155Z,95364.50
2023-05-17T17:42:51.288Z,95361.09
2023-05-17T17:45:18.951Z,95363.81
2023-05-17T17:47:46.659Z,95360.75
2023-05-17T17:50:14.469Z,95364.28
2023-05-17T17:52:42.163Z,95369.06
2023-05-17T17:55:12.994Z,95366.00
2023-05-17T17:57:41.661Z,95377.16
2023-05-17T18:00:12.810Z,95377.03
2023-05-17T18:02:40.577Z,95385.47
2023-05-17T18:05:09.072Z,95384.28
2023-05-17T18:07:36.760Z,95382.41
2023-05-17T18:10:04.665Z,95376.84
2023-05-17T18:12:32.499Z,95390.44
2023-05-17T18:15:00.159Z,95387.25
2023-05-17T18:17:29.443Z,95384.31
2023-05-17T18:19:57.202Z,95396.75
2023-05-17T18:22:24.933Z,95389.88
2023-05-17T18:24:52.685Z,95398.50
2023-05-17T18:27:20.433Z,95402.78
2023-05-17T18:29:48.076Z,95399.72
2023-05-17T18:32:15.791Z,95402.56
2023-05-17T18:34:45.024Z,95406.69
2023-05-17T18:37:12.843Z,95404.09
2023-05-17T18:39:40.749Z,95405.63
2023-05-17T18:42:08.546Z,95406.09
2023-05-17T18:44:36.974Z,95404.94
2023-05-17T18:47:04.786Z,95411.44
2023-05-17T18:49:32.464Z,95409.06
2023-05-17T18:52:01.478Z,95412.97
2023-05-17T18:54:29.167Z,95415.06
2023-05-17T18:56:56.805Z,95418.53
2023-05-17T18:59:24.429Z,95416.84
2023-05-17T19:01:52.119Z,95422.59
2023-05-17T19:04:19.866Z,95423.53
2023-05-17T19:06:47.573Z,95422.72
2023-05-17T19:09:16.617Z,95420.44
2023-05-17T19:11:44.291Z,95412.81
2023-05-17T19:14:14.539Z,95423.84
2023-05-17T19:16:42.261Z,95431.19
2023-05-17T19:19:10.247Z,95433.44
2023-05-17T19:21:38.036Z,95438.66
2023-05-17T19:24:06.600Z,95443.34
2023-05-17T19:26:35.865Z,95438.97
2023-05-17T19:29:03.522Z,95448.78
2023-05-17T19:31:31.222Z,95444.66
2023-05-17T19:33:59.358Z,95447.59
2023-05-17T19:36:27.039Z,95447.47
2023-05-17T19:38:54.710Z,95450.28
2023-05-17T19:41:22.969Z,95454.41
2023-05-17T19:43:51.946Z,95451.94
2023-05-17T19:46:19.674Z,95453.22
2023-05-17T19:48:47.776Z,95448.38
2023-05-17T19:51:15.437Z,95452.75
2023-05-17T19:53:52.670Z,95456.06
2023-05-17T19:56:23.650Z,95452.50
2023-05-17T19:58:54.084Z,95456.25
2023-05-17T20:01:22.429Z,95448.69
2023-05-17T20:03:50.334Z,95461.25
2023-05-17T20:06:18.067Z,95453.91
2023-05-17T20:08:46.819Z,95452.72
2023-05-17T20:11:14.748Z,95449.63
2023-05-17T20:13:42.365Z,95449.00
2023-05-17T20:16:13.535Z,95451.81
2023-05-17T20:18:42.786Z,95452.66
2023-05-17T20:21:11.263Z,95458.56
2023-05-17T20:23:39.158Z,95460.53
2023-05-17T20:26:06.821Z,95460.91
2023-05-17T20:28:34.498Z,95455.25
2023-05-17T20:31:02.546Z,95464.44
2023-05-17T20:33:31.542Z,95462.63
2023-05-17T20:35:59.436Z,95465.34
2023-05-17T20:38:27.127Z,95463.25
2023-05-17T20:40:55.473Z,95462.41
2023-05-17T20:43:28.679Z,95463.47
2023-05-17T20:45:56.494Z,95454.47
2023-05-17T20:48:24.285Z,95469.59
2023-05-17T20:50:53.285Z,95459.31
2023-05-17T20:53:21.087Z,95469.13
2023-05-17T20:55:49.333Z,95469.34
2023-05-17T20:58:17.028Z,95467.91
2023-05-17T21:00:44.730Z,95468.34
2023-05-17T21:03:12.463Z,95463.41
2023-05-17T21:05:40.467Z,95462.56
2023-05-17T21:08:12.918Z,95463.63
2023-05-17T21:10:42.754Z,95464.91
2023-05-17T21:13:12.390Z,95479.31
2023-05-17T21:15:40.048Z,95472.22
2023-05-17T21:18:08.771Z,95472.47
2023-05-17T21:20:36.726Z,95471.00
2023-05-17T21:23:04.492Z,95475.19
2023-05-17T21:25:34.063Z,95473.50
2023-05-17T21:28:01.806Z,95464.97
2023-05-17T21:30:29.688Z,95466.88
2023-05-17T21:32:57.570Z,95472.16
2023-05-17T21:35:25.251Z,95474.88
2023-05-17T21:37:52.952Z,95464.22
2023-05-17T21:40:20.637Z,95463.63
2023-05-17T21:42:50.159Z,95460.50
2023-05-17T21:45:17.789Z,95463.94
2023-05-17T21:47:45.474Z,95466.25
2023-05-17T21:50:13.180Z,95455.75
2023-05-17T21:52:40.916Z,95457.31
2023-05-17T21:55:09.770Z,95456.09
2023-05-17T21:57:37.730Z,95454.22
2023-05-17T22:00:12.564Z,95456.34
2023-05-17T22:02:41.046Z,95454.44
2023-05-17T22:05:09.331Z,95457.00
2023-05-17T22:07:37.497Z,95448.25
2023-05-17T22:10:08.744Z,95454.13
2023-05-17T22:12:38.238Z,95449.13
2023-05-17T22:15:09.672Z,95446.84
2023-05-17T22:17:47.969Z,95441.88
2023-05-17T22:20:23.453Z,95453.00
2023-05-17T22:22:51.412Z,95447.41
2023-05-17T22:25:19.226Z,95443.25
2023-05-17T22:27:46.909Z,95445.16
2023-05-17T22:30:16.049Z,95441.84
2023-05-17T22:32:43.802Z,95439.78
2023-05-17T22:35:11.644Z,95438.56
2023-05-17T22:37:42.372Z,95437.38
2023-05-17T22:40:11.012Z,95438.25
2023-05-17T22:42:38.835Z,95432.22
2023-05-17T22:45:07.180Z,95434.97
2023-05-17T22:47:36.568Z,95433.50
2023-05-17T22:50:04.608Z,95434.97
2023-05-17T22:52:32.673Z,95430.38
2023-05-17T22:55:00.397Z,95424.72
2023-05-17T22:57:28.224Z,95429.31
2023-05-17T22:59:55.955Z,95420.72
2023-05-17T23:02:23.641Z,95414.25
2023-05-17T23:04:52.692Z,95419.47
2023-05-17T23:07:20.927Z,95414.25
2023-05-17T23:09:48.572Z,95410.50
2023-05-17T23:12:17.459Z,95410.28
2023-05-17T23:14:45.164Z,95407.78
2023-05-17T23:17:12.841Z,95408.63
2023-05-17T23:19:40.608Z,95399.44
2023-05-17T23:22:10.743Z,95404.63
2023-05-17T23:24:38.832Z,95404.41
2023-05-17T23:27:09.824Z,95395.81
2023-05-17T23:29:37.681Z,95396.69
2023-05-17T23:32:05.690Z,95385.41
2023-05-17T23:34:33.498Z,95386.69
2023-05-17T23:37:01.304Z,95385.88
2023-05-17T23:39:30.580Z,95383.16
2023-05-17T23:41:58.279Z,95382.53
2023-05-17T23:44:26.712Z,95385.31
2023-05-17T23:46:54.930Z,95385.75
2023-05-17T23:49:22.807Z,95377.91
2023-05-17T23:51:50.641Z,95378.16
2023-05-17T23:54:18.415Z,95380.88
2023-05-17T23:56:47.414Z,95376.28
2023-05-17T23:59:15.023Z,95386.28
